sensor_id;sensor_type;location;lat;lon;timestamp;pressure;altitude;pressure_sealevel;temperature;humidity
23321;BME280;33376;51.306;4.752;2023-05-16T00:00:15;101306.28;;;8.64;100.00
23321;BME280;33376;51.306;4.752;2023-05-16T00:02:40;101318.81;;;8.59;100.00
23321;BME280;33376;51.306;4.752;2023-05-16T00:05:06;101340.50;;;8.45;100.00
23321;BME280;33376;51.306;4.752;2023-05-16T00:07:44;101357.44;;;8.40;100.00
23321;BME280;33376;51.306;4.752;2023-05-16T00:10:09;101379.88;;;8.28;100.00
23321;BME280;33376;51.306;4.752;2023-05-16T00:12:35;101389.44;;;8.32;100.00
23321;BME280;33376;51.306;4.752;2023-05-16T00:15:01;101414.97;;;8.32;100.00
23321;BME280;33376;51.306;4.752;2023-05-16T00:17:27;101411.75;;;8.24;100.00
23321;BME280;33376;51.306;4.752;2023-05-16T00:19:53;101421.13;;;8.32;100.00
23321;BME280;33376;51.306;4.752;2023-05-16T00:22:25;101423.06;;;8.27;100.00
23321;BME280;33376;51.306;4.752;2023-05-16T00:24:51;101440.06;;;8.19;100.00
23321;BME280;33376;51.306;4.752;2023-05-16T00:27:16;101468.63;;;8.08;100.00
23321;BME280;33376;51.306;4.752;2023-05-16T00:29:42;101504.22;;;8.22;100.00
23321;BME280;33376;51.306;4.752;2023-05-16T00:32:07;101515.94;;;8.14;100.00
23321;BME280;33376;51.306;4.752;2023-05-16T00:34:33;101515.94;;;8.15;100.00
23321;BME280;33376;51.306;4.752;2023-05-16T00:36:58;101550.44;;;8.09;100.00
23321;BME280;33376;51.306;4.752;2023-05-16T00:39:23;101562.88;;;8.06;100.00
23321;BME280;33376;51.306;4.752;2023-05-16T00:41:49;101570.91;;;8.03;100.00
23321;BME280;33376;51.306;4.752;2023-05-16T00:44:14;101574.63;;;7.97;100.00
23321;BME280;33376;51.306;4.752;2023-05-16T00:46:39;101601.31;;;7.88;100.00
23321;BME280;33376;51.306;4.752;2023-05-16T00:49:05;101624.59;;;7.76;100.00
23321;BME280;33376;51.306;4.752;2023-05-16T00:51:30;101746.06;;;7.74;100.00
23321;BME280;33376;51.306;4.752;2023-05-16T00:53:56;101792.81;;;7.71;100.00
23321;BME280;33376;51.306;4.752;2023-05-16T00:56:21;101807.59;;;7.76;100.00
23321;BME280;33376;51.306;4.752;2023-05-16T00:58:47;101810.25;;;7.76;100.00
23321;BME280;33376;51.306;4.752;2023-05-16T01:01:12;101821.22;;;7.61;100.00
23321;BME280;33376;51.306;4.752;2023-05-16T01:03:38;101829.16;;;7.60;100.00
23321;BME280;33376;51.306;4.752;2023-05-16T01:06:03;101835.25;;;7.63;100.00
23321;BME280;33376;51.306;4.752;2023-05-16T01:08:28;101826.13;;;7.75;100.00
23321;BME280;33376;51.306;4.752;2023-05-16T01:16:26;101846.97;;;7.53;100.00
23321;BME280;33376;51.306;4.752;2023-05-16T01:19:02;101838.00;;;7.59;100.00
23321;BME280;33376;51.306;4.752;2023-05-16T01:24:07;101829.38;;;7.52;100.00
23321;BME280;33376;51.306;4.752;2023-05-16T01:26:35;101825.81;;;7.55;100.00
23321;BME280;33376;51.306;4.752;2023-05-16T01:29:00;101827.72;;;7.50;100.00
23321;BME280;33376;51.306;4.752;2023-05-16T01:31:26;101834.91;;;7.43;100.00
23321;BME280;33376;51.306;4.752;2023-05-16T01:33:52;101847.56;;;7.30;100.00
23321;BME280;33376;51.306;4.752;2023-05-16T01:36:24;101859.97;;;7.25;100.00
23321;BME280;33376;51.306;4.752;2023-05-16T01:41:42;101877.84;;;7.14;100.00
23321;BME280;33376;51.306;4.752;2023-05-16T01:46:53;101971.00;;;7.15;100.00
23321;BME280;33376;51.306;4.752;2023-05-16T01:49:38;101980.81;;;7.10;100.00
23321;BME280;33376;51.306;4.752;2023-05-16T01:52:10;101996.75;;;7.04;100.00
23321;BME280;33376;51.306;4.752;2023-05-16T01:54:38;102012.56;;;7.04;100.00
23321;BME280;33376;51.306;4.752;2023-05-16T01:57:07;102030.19;;;7.03;100.00
23321;BME280;33376;51.306;4.752;2023-05-16T01:59:32;102031.75;;;7.10;100.00
23321;BME280;33376;51.306;4.752;2023-05-16T02:01:58;102037.66;;;7.21;100.00
23321;BME280;33376;51.306;4.752;2023-05-16T02:04:24;102034.41;;;7.10;100.00
23321;BME280;33376;51.306;4.752;2023-05-16T02:06:50;102053.06;;;7.01;100.00
23321;BME280;33376;51.306;4.752;2023-05-16T02:09:16;102058.31;;;7.03;100.00
23321;BME280;33376;51.306;4.752;2023-05-16T02:11:41;102064.59;;;6.96;100.00
23321;BME280;33376;51.306;4.752;2023-05-16T02:14:07;102077.00;;;6.91;100.00
23321;BME280;33376;51.306;4.752;2023-05-16T02:16:32;102078.88;;;6.86;100.00
23321;BME280;33376;51.306;4.752;2023-05-16T02:18:57;102081.66;;;6.77;100.00
23321;BME280;33376;51.306;4.752;2023-05-16T02:21:23;102094.06;;;6.73;100.00
23321;BME280;33376;51.306;4.752;2023-05-16T02:23:48;102093.28;;;6.68;100.00
23321;BME280;33376;51.306;4.752;2023-05-16T02:26:13;102104.78;;;6.63;100.00
23321;BME280;33376;51.306;4.752;2023-05-16T02:28:39;102104.94;;;6.55;100.00
23321;BME280;33376;51.306;4.752;2023-05-16T02:31:05;102118.16;;;6.52;100.00
23321;BME280;33376;51.306;4.752;2023-05-16T02:33:30;102123.47;;;6.51;100.00
23321;BME280;33376;51.306;4.752;2023-05-16T02:35:55;102124.41;;;6.47;100.00
23321;BME280;33376;51.306;4.752;2023-05-16T02:38:21;102135.63;;;6.58;100.00
23321;BME280;33376;51.306;4.752;2023-05-16T02:40:46;102134.78;;;6.54;100.00
23321;BME280;33376;51.306;4.752;2023-05-16T02:43:12;102142.00;;;6.45;100.00
23321;BME280;33376;51.306;4.752;2023-05-16T02:45:37;102154.34;;;6.43;100.00
23321;BME280;33376;51.306;4.752;2023-05-16T02:48:02;102156.94;;;6.46;100.00
23321;BME280;33376;51.306;4.752;2023-05-16T02:50:27;102164.91;;;6.41;100.00
23321;BME280;33376;51.306;4.752;2023-05-16T02:52:53;102170.97;;;6.45;100.00
23321;BME280;33376;51.306;4.752;2023-05-16T02:55:18;102172.78;;;6.43;100.00
23321;BME280;33376;51.306;4.752;2023-05-16T02:57:43;102179.03;;;6.36;100.00
23321;BME280;33376;51.306;4.752;2023-05-16T03:00:09;102181.72;;;6.33;100.00
23321;BME280;33376;51.306;4.752;2023-05-16T03:02:35;102183.50;;;6.31;100.00
23321;BME280;33376;51.306;4.752;2023-05-16T03:05:00;102184.50;;;6.24;100.00
23321;BME280;33376;51.306;4.752;2023-05-16T03:07:26;102178.41;;;6.20;100.00
23321;BME280;33376;51.306;4.752;2023-05-16T03:09:52;102194.34;;;6.11;100.00
23321;BME280;33376;51.306;4.752;2023-05-16T03:12:17;102203.13;;;6.12;100.00
23321;BME280;33376;51.306;4.752;2023-05-16T03:14:42;102197.06;;;6.05;100.00
23321;BME280;33376;51.306;4.752;2023-05-16T03:17:07;102198.94;;;5.97;100.00
23321;BME280;33376;51.306;4.752;2023-05-16T03:19:33;102196.38;;;5.92;100.00
23321;BME280;33376;51.306;4.752;2023-05-16T03:21:58;102200.75;;;5.93;100.00
23321;BME280;33376;51.306;4.752;2023-05-16T03:24:23;102193.78;;;5.89;100.00
23321;BME280;33376;51.306;4.752;2023-05-16T03:26:49;102190.28;;;5.89;100.00
23321;BME280;33376;51.306;4.752;2023-05-16T03:29:14;102210.53;;;5.82;100.00
23321;BME280;33376;51.306;4.752;2023-05-16T03:31:40;102220.22;;;5.79;100.00
23321;BME280;33376;51.306;4.752;2023-05-16T03:34:06;102213.22;;;5.76;100.00
23321;BME280;33376;51.306;4.752;2023-05-16T03:36:40;102219.38;;;5.75;100.00
23321;BME280;33376;51.306;4.752;2023-05-16T03:39:06;102215.91;;;5.73;100.00
23321;BME280;33376;51.306;4.752;2023-05-16T03:41:32;102213.41;;;5.64;100.00
23321;BME280;33376;51.306;4.752;2023-05-16T03:44:08;102215.97;;;5.69;100.00
23321;BME280;33376;51.306;4.752;2023-05-16T03:46:35;102219.53;;;5.63;100.00
23321;BME280;33376;51.306;4.752;2023-05-16T03:49:00;102210.75;;;5.66;100.00
23321;BME280;33376;51.306;4.752;2023-05-16T03:51:26;102209.06;;;5.59;100.00
23321;BME280;33376;51.306;4.752;2023-05-16T03:53:52;102205.56;;;5.60;100.00
23321;BME280;33376;51.306;4.752;2023-05-16T03:56:17;102204.69;;;5.59;100.00
23321;BME280;33376;51.306;4.752;2023-05-16T03:58:42;102202.97;;;5.58;100.00
23321;BME280;33376;51.306;4.752;2023-05-16T04:01:08;102207.38;;;5.55;100.00
23321;BME280;33376;51.306;4.752;2023-05-16T04:03:33;102204.75;;;5.55;100.00
23321;BME280;33376;51.306;4.752;2023-05-16T04:05:58;102207.22;;;5.65;100.00
23321;BME280;33376;51.306;4.752;2023-05-16T04:08:24;102200.00;;;5.81;100.00
23321;BME280;33376;51.306;4.752;2023-05-16T04:10:49;102200.75;;;5.93;100.00
23321;BME280;33376;51.306;4.752;2023-05-16T04:13:15;102203.38;;;5.95;100.00
23321;BME280;33376;51.306;4.752;2023-05-16T04:15:40;102200.66;;;6.00;100.00
23321;BME280;33376;51.306;4.752;2023-05-16T04:18:06;102198.09;;;5.95;100.00
23321;BME280;33376;51.306;4.752;2023-05-16T04:20:31;102196.41;;;5.89;100.00
23321;BME280;33376;51.306;4.752;2023-05-16T04:22:56;102192.06;;;5.88;100.00
23321;BME280;33376;51.306;4.752;2023-05-16T04:25:22;102196.44;;;5.88;100.00
23321;BME280;33376;51.306;4.752;2023-05-16T04:27:47;102189.44;;;5.87;100.00
23321;BME280;33376;51.306;4.752;2023-05-16T04:30:12;102188.50;;;5.91;100.00
23321;BME280;33376;51.306;4.752;2023-05-16T04:32:38;102186.63;;;5.99;100.00
23321;BME280;33376;51.306;4.752;2023-05-16T04:35:04;102189.22;;;6.02;100.00
23321;BME280;33376;51.306;4.752;2023-05-16T04:37:29;102193.50;;;6.09;100.00
23321;BME280;33376;51.306;4.752;2023-05-16T04:39:55;102194.22;;;6.20;100.00
23321;BME280;33376;51.306;4.752;2023-05-16T04:42:21;102191.34;;;6.34;100.00
23321;BME280;33376;51.306;4.752;2023-05-16T04:44:46;102193.81;;;6.46;100.00
23321;BME280;33376;51.306;4.752;2023-05-16T04:47:12;102188.84;;;6.79;100.00
23321;BME280;33376;51.306;4.752;2023-05-16T04:49:37;102189.41;;;6.96;100.00
23321;BME280;33376;51.306;4.752;2023-05-16T04:52:02;102181.69;;;7.30;100.00
23321;BME280;33376;51.306;4.752;2023-05-16T04:54:28;102171.72;;;7.44;100.00
23321;BME280;33376;51.306;4.752;2023-05-16T04:56:53;102173.78;;;7.71;100.00
23321;BME280;33376;51.306;4.752;2023-05-16T04:59:18;102152.41;;;7.83;100.00
23321;BME280;33376;51.306;4.752;2023-05-16T05:01:44;102146.16;;;7.87;100.00
23321;BME280;33376;51.306;4.752;2023-05-16T05:04:09;102136.97;;;8.03;100.00
23321;BME280;33376;51.306;4.752;2023-05-16T05:06:37;102127.00;;;8.14;100.00
23321;BME280;33376;51.306;4.752;2023-05-16T05:09:02;102121.53;;;8.22;100.00
23321;BME280;33376;51.306;4.752;2023-05-16T05:11:31;102114.91;;;8.42;100.00
23321;BME280;33376;51.306;4.752;2023-05-16T05:13:56;102106.59;;;8.56;100.00
23321;BME280;33376;51.306;4.752;2023-05-16T05:16:22;102100.03;;;8.70;100.00
23321;BME280;33376;51.306;4.752;2023-05-16T05:21:47;102062.75;;;9.10;100.00
23321;BME280;33376;51.306;4.752;2023-05-16T05:24:15;102045.75;;;9.46;100.00
23321;BME280;33376;51.306;4.752;2023-05-16T05:26:46;101991.13;;;11.17;100.00
23321;BME280;33376;51.306;4.752;2023-05-16T05:29:12;101871.91;;;12.53;100.00
23321;BME280;33376;51.306;4.752;2023-05-16T05:31:37;101645.75;;;14.49;100.00
23321;BME280;33376;51.306;4.752;2023-05-16T05:34:03;101251.94;;;14.86;100.00
23321;BME280;33376;51.306;4.752;2023-05-16T05:36:28;101127.03;;;15.78;100.00
23321;BME280;33376;51.306;4.752;2023-05-16T05:38:55;101116.31;;;16.27;100.00
23321;BME280;33376;51.306;4.752;2023-05-16T05:41:20;101330.03;;;17.29;100.00
23321;BME280;33376;51.306;4.752;2023-05-16T05:43:46;101503.72;;;17.36;100.00
23321;BME280;33376;51.306;4.752;2023-05-16T05:46:11;101701.53;;;17.06;100.00
23321;BME280;33376;51.306;4.752;2023-05-16T05:48:36;101792.72;;;17.44;100.00
23321;BME280;33376;51.306;4.752;2023-05-16T05:51:02;101877.03;;;17.13;100.00
23321;BME280;33376;51.306;4.752;2023-05-16T05:53:27;101960.66;;;18.37;100.00
23321;BME280;33376;51.306;4.752;2023-05-16T05:55:52;102019.28;;;16.82;100.00
23321;BME280;33376;51.306;4.752;2023-05-16T05:58:18;102062.53;;;17.04;100.00
23321;BME280;33376;51.306;4.752;2023-05-16T06:00:43;102086.91;;;16.72;100.00
23321;BME280;33376;51.306;4.752;2023-05-16T06:03:09;102123.66;;;15.13;100.00
23321;BME280;33376;51.306;4.752;2023-05-16T06:05:34;102152.69;;;14.86;100.00
23321;BME280;33376;51.306;4.752;2023-05-16T06:07:59;102159.50;;;15.43;100.00
23321;BME280;33376;51.306;4.752;2023-05-16T06:10:24;102167.09;;;15.50;100.00
23321;BME280;33376;51.306;4.752;2023-05-16T06:12:50;102160.03;;;16.11;100.00
23321;BME280;33376;51.306;4.752;2023-05-16T06:15:15;102111.91;;;16.86;100.00
23321;BME280;33376;51.306;4.752;2023-05-16T06:17:40;102124.75;;;16.95;100.00
23321;BME280;33376;51.306;4.752;2023-05-16T06:20:06;102084.53;;;18.33;100.00
23321;BME280;33376;51.306;4.752;2023-05-16T06:22:32;102094.88;;;16.87;100.00
23321;BME280;33376;51.306;4.752;2023-05-16T06:24:57;102120.78;;;16.87;100.00
23321;BME280;33376;51.306;4.752;2023-05-16T06:27:22;102122.28;;;18.17;100.00
23321;BME280;33376;51.306;4.752;2023-05-16T06:29:47;102076.41;;;17.25;100.00
23321;BME280;33376;51.306;4.752;2023-05-16T06:32:13;102204.38;;;14.85;100.00
23321;BME280;33376;51.306;4.752;2023-05-16T06:34:38;102260.22;;;14.90;100.00
23321;BME280;33376;51.306;4.752;2023-05-16T06:37:03;102290.50;;;13.97;100.00
23321;BME280;33376;51.306;4.752;2023-05-16T06:39:29;102300.78;;;13.86;100.00
23321;BME280;33376;51.306;4.752;2023-05-16T06:41:54;102270.00;;;15.42;100.00
23321;BME280;33376;51.306;4.752;2023-05-16T06:44:21;102267.59;;;14.49;100.00
23321;BME280;33376;51.306;4.752;2023-05-16T06:46:46;102286.25;;;14.68;100.00
23321;BME280;33376;51.306;4.752;2023-05-16T06:49:11;102308.28;;;13.97;100.00
23321;BME280;33376;51.306;4.752;2023-05-16T06:51:37;102336.44;;;13.64;100.00
23321;BME280;33376;51.306;4.752;2023-05-16T06:54:02;102353.50;;;12.96;100.00
23321;BME280;33376;51.306;4.752;2023-05-16T06:56:28;102351.66;;;12.31;100.00
23321;BME280;33376;51.306;4.752;2023-05-16T06:58:53;102320.03;;;12.46;100.00
23321;BME280;33376;51.306;4.752;2023-05-16T07:01:18;102301.13;;;12.54;100.00
23321;BME280;33376;51.306;4.752;2023-05-16T07:03:44;102259.53;;;14.32;100.00
23321;BME280;33376;51.306;4.752;2023-05-16T07:06:09;102213.81;;;16.85;100.00
23321;BME280;33376;51.306;4.752;2023-05-16T07:08:34;102147.06;;;17.38;100.00
23321;BME280;33376;51.306;4.752;2023-05-16T07:11:01;102116.41;;;18.25;100.00
23321;BME280;33376;51.306;4.752;2023-05-16T07:13:26;102006.78;;;18.94;100.00
23321;BME280;33376;51.306;4.752;2023-05-16T07:15:51;101965.97;;;18.76;100.00
23321;BME280;33376;51.306;4.752;2023-05-16T07:18:17;102057.75;;;16.95;100.00
23321;BME280;33376;51.306;4.752;2023-05-16T07:20:42;102143.09;;;15.32;100.00
23321;BME280;33376;51.306;4.752;2023-05-16T07:23:07;102261.06;;;14.17;100.00
23321;BME280;33376;51.306;4.752;2023-05-16T07:25:32;102299.03;;;13.85;100.00
23321;BME280;33376;51.306;4.752;2023-05-16T07:27:58;102343.59;;;13.21;100.00
23321;BME280;33376;51.306;4.752;2023-05-16T07:30:24;102356.56;;;13.09;100.00
23321;BME280;33376;51.306;4.752;2023-05-16T07:32:50;102367.56;;;13.00;100.00
23321;BME280;33376;51.306;4.752;2023-05-16T07:35:15;102335.09;;;13.54;100.00
23321;BME280;33376;51.306;4.752;2023-05-16T07:37:40;102284.16;;;14.18;100.00
23321;BME280;33376;51.306;4.752;2023-05-16T07:40:07;102287.97;;;13.94;100.00
23321;BME280;33376;51.306;4.752;2023-05-16T07:42:33;102330.88;;;13.28;100.00
23321;BME280;33376;51.306;4.752;2023-05-16T07:44:58;102318.88;;;13.98;100.00
23321;BME280;33376;51.306;4.752;2023-05-16T07:47:23;102264.94;;;15.36;100.00
23321;BME280;33376;51.306;4.752;2023-05-16T07:49:49;102265.06;;;15.17;100.00
23321;BME280;33376;51.306;4.752;2023-05-16T07:52:14;102213.56;;;15.96;100.00
23321;BME280;33376;51.306;4.752;2023-05-16T07:54:39;102147.19;;;16.79;100.00
23321;BME280;33376;51.306;4.752;2023-05-16T07:57:04;102073.56;;;17.83;100.00
23321;BME280;33376;51.306;4.752;2023-05-16T07:59:31;102001.53;;;18.03;100.00
23321;BME280;33376;51.306;4.752;2023-05-16T08:01:56;101940.06;;;17.86;100.00
23321;BME280;33376;51.306;4.752;2023-05-16T08:04:21;101935.59;;;17.87;100.00
23321;BME280;33376;51.306;4.752;2023-05-16T08:06:47;101919.34;;;18.65;100.00
23321;BME280;33376;51.306;4.752;2023-05-16T08:09:12;101862.47;;;20.23;100.00
23321;BME280;33376;51.306;4.752;2023-05-16T08:11:37;101806.47;;;20.05;100.00
23321;BME280;33376;51.306;4.752;2023-05-16T08:14:04;101894.34;;;17.75;100.00
23321;BME280;33376;51.306;4.752;2023-05-16T08:16:29;102012.69;;;17.02;100.00
23321;BME280;33376;51.306;4.752;2023-05-16T08:18:55;102037.66;;;17.44;100.00
23321;BME280;33376;51.306;4.752;2023-05-16T08:21:20;101986.78;;;17.84;100.00
23321;BME280;33376;51.306;4.752;2023-05-16T08:23:45;101904.31;;;19.11;100.00
23321;BME280;33376;51.306;4.752;2023-05-16T08:26:11;101786.63;;;20.06;100.00
23321;BME280;33376;51.306;4.752;2023-05-16T08:28:36;101744.34;;;19.17;100.00
23321;BME280;33376;51.306;4.752;2023-05-16T08:31:02;101845.22;;;19.22;100.00
23321;BME280;33376;51.306;4.752;2023-05-16T08:33:27;101852.72;;;18.57;100.00
23321;BME280;33376;51.306;4.752;2023-05-16T08:35:53;101872.75;;;17.64;100.00
23321;BME280;33376;51.306;4.752;2023-05-16T08:38:18;101751.56;;;19.51;100.00
23321;BME280;33376;51.306;4.752;2023-05-16T08:40:44;101656.34;;;21.35;100.00
23321;BME280;33376;51.306;4.752;2023-05-16T08:43:09;101632.09;;;19.86;100.00
23321;BME280;33376;51.306;4.752;2023-05-16T08:45:35;101716.06;;;20.67;100.00
23321;BME280;33376;51.306;4.752;2023-05-16T08:48:00;101814.47;;;18.90;100.00
23321;BME280;33376;51.306;4.752;2023-05-16T08:50:28;101815.94;;;19.30;100.00
23321;BME280;33376;51.306;4.752;2023-05-16T08:52:55;101758.50;;;18.35;100.00
23321;BME280;33376;51.306;4.752;2023-05-16T08:55:20;101679.06;;;19.71;100.00
23321;BME280;33376;51.306;4.752;2023-05-16T08:57:48;101642.44;;;20.67;100.00
23321;BME280;33376;51.306;4.752;2023-05-16T09:00:13;101586.69;;;20.67;100.00
23321;BME280;33376;51.306;4.752;2023-05-16T09:02:39;101634.19;;;20.48;100.00
23321;BME280;33376;51.306;4.752;2023-05-16T09:05:05;101544.53;;;21.67;100.00
23321;BME280;33376;51.306;4.752;2023-05-16T09:07:32;101400.69;;;22.70;100.00
23321;BME280;33376;51.306;4.752;2023-05-16T09:09:58;101535.00;;;21.54;100.00
23321;BME280;33376;51.306;4.752;2023-05-16T09:12:23;101641.50;;;19.92;100.00
23321;BME280;33376;51.306;4.752;2023-05-16T09:14:48;101672.72;;;20.05;100.00
23321;BME280;33376;51.306;4.752;2023-05-16T09:17:14;101658.16;;;19.64;100.00
23321;BME280;33376;51.306;4.752;2023-05-16T09:19:42;101526.44;;;21.98;100.00
23321;BME280;33376;51.306;4.752;2023-05-16T09:22:08;101551.78;;;20.45;100.00
23321;BME280;33376;51.306;4.752;2023-05-16T09:24:41;101672.09;;;20.24;100.00
23321;BME280;33376;51.306;4.752;2023-05-16T09:27:09;101821.94;;;19.34;100.00
23321;BME280;33376;51.306;4.752;2023-05-16T09:29:35;101755.84;;;19.19;100.00
23321;BME280;33376;51.306;4.752;2023-05-16T09:32:03;101862.16;;;18.63;100.00
23321;BME280;33376;51.306;4.752;2023-05-16T09:34:29;101782.56;;;19.67;100.00
23321;BME280;33376;51.306;4.752;2023-05-16T09:36:54;101742.38;;;19.42;100.00
23321;BME280;33376;51.306;4.752;2023-05-16T09:39:19;101836.47;;;17.71;100.00
23321;BME280;33376;51.306;4.752;2023-05-16T09:41:45;101826.44;;;18.12;100.00
23321;BME280;33376;51.306;4.752;2023-05-16T09:44:10;101761.19;;;19.99;100.00
23321;BME280;33376;51.306;4.752;2023-05-16T09:46:36;101725.81;;;19.70;100.00
23321;BME280;33376;51.306;4.752;2023-05-16T09:49:02;101765.53;;;18.13;100.00
23321;BME280;33376;51.306;4.752;2023-05-16T09:51:27;101801.78;;;19.16;100.00
23321;BME280;33376;51.306;4.752;2023-05-16T09:53:52;101658.03;;;19.54;100.00
23321;BME280;33376;51.306;4.752;2023-05-16T09:56:18;101733.38;;;18.72;100.00
23321;BME280;33376;51.306;4.752;2023-05-16T09:58:43;101767.09;;;18.76;100.00
23321;BME280;33376;51.306;4.752;2023-05-16T10:01:10;101618.53;;;20.42;100.00
23321;BME280;33376;51.306;4.752;2023-05-16T10:03:36;101538.66;;;20.52;100.00
23321;BME280;33376;51.306;4.752;2023-05-16T10:06:02;101623.31;;;19.06;100.00
23321;BME280;33376;51.306;4.752;2023-05-16T10:08:27;101670.53;;;18.86;100.00
23321;BME280;33376;51.306;4.752;2023-05-16T10:10:54;101664.72;;;19.38;100.00
23321;BME280;33376;51.306;4.752;2023-05-16T10:13:21;101660.34;;;19.48;100.00
23321;BME280;33376;51.306;4.752;2023-05-16T10:15:50;101727.25;;;18.47;100.00
23321;BME280;33376;51.306;4.752;2023-05-16T10:18:17;101813.41;;;17.29;100.00
23321;BME280;33376;51.306;4.752;2023-05-16T10:20:43;101884.47;;;16.68;100.00
23321;BME280;33376;51.306;4.752;2023-05-16T10:23:09;101897.88;;;16.68;100.00
23321;BME280;33376;51.306;4.752;2023-05-16T10:25:39;101894.88;;;17.00;100.00
23321;BME280;33376;51.306;4.752;2023-05-16T10:28:06;101866.97;;;18.70;100.00
23321;BME280;33376;51.306;4.752;2023-05-16T10:30:32;101791.53;;;18.00;100.00
23321;BME280;33376;51.306;4.752;2023-05-16T10:32:58;101767.31;;;18.50;100.00
23321;BME280;33376;51.306;4.752;2023-05-16T10:35:25;101723.88;;;18.07;100.00
23321;BME280;33376;51.306;4.752;2023-05-16T10:37:51;101779.94;;;18.12;100.00
23321;BME280;33376;51.306;4.752;2023-05-16T10:40:17;101717.28;;;17.63;100.00
23321;BME280;33376;51.306;4.752;2023-05-16T10:42:54;101816.00;;;17.31;100.00
23321;BME280;33376;51.306;4.752;2023-05-16T10:45:20;101871.00;;;16.69;100.00
23321;BME280;33376;51.306;4.752;2023-05-16T10:47:56;101946.06;;;16.82;100.00
23321;BME280;33376;51.306;4.752;2023-05-16T10:50:34;101991.66;;;18.04;100.00
23321;BME280;33376;51.306;4.752;2023-05-16T10:55:38;101863.75;;;17.78;100.00
23321;BME280;33376;51.306;4.752;2023-05-16T10:58:03;101673.09;;;19.11;100.00
23321;BME280;33376;51.306;4.752;2023-05-16T11:00:29;101709.25;;;19.18;100.00
23321;BME280;33376;51.306;4.752;2023-05-16T11:02:54;101758.19;;;18.27;100.00
23321;BME280;33376;51.306;4.752;2023-05-16T11:05:28;101818.28;;;17.10;100.00
23321;BME280;33376;51.306;4.752;2023-05-16T11:08:05;101914.16;;;16.07;100.00
23321;BME280;33376;51.306;4.752;2023-05-16T11:10:31;101967.56;;;16.38;100.00
23321;BME280;33376;51.306;4.752;2023-05-16T11:13:01;101980.75;;;15.82;100.00
23321;BME280;33376;51.306;4.752;2023-05-16T11:15:27;101954.06;;;16.26;100.00
23321;BME280;33376;51.306;4.752;2023-05-16T11:18:08;101945.22;;;15.80;100.00
23321;BME280;33376;51.306;4.752;2023-05-16T11:20:37;102002.84;;;16.15;100.00
23321;BME280;33376;51.306;4.752;2023-05-16T11:25:41;102021.75;;;16.85;100.00
23321;BME280;33376;51.306;4.752;2023-05-16T11:28:07;101967.53;;;17.36;100.00
23321;BME280;33376;51.306;4.752;2023-05-16T11:30:32;101839.94;;;18.48;100.00
23321;BME280;33376;51.306;4.752;2023-05-16T11:32:58;101732.22;;;19.46;100.00
23321;BME280;33376;51.306;4.752;2023-05-16T11:35:23;101742.28;;;19.20;100.00
23321;BME280;33376;51.306;4.752;2023-05-16T11:37:49;101666.56;;;19.48;100.00
23321;BME280;33376;51.306;4.752;2023-05-16T11:40:15;101693.19;;;18.71;100.00
23321;BME280;33376;51.306;4.752;2023-05-16T11:42:45;101757.88;;;18.32;100.00
23321;BME280;33376;51.306;4.752;2023-05-16T11:45:13;101905.09;;;17.08;100.00
23321;BME280;33376;51.306;4.752;2023-05-16T11:47:39;101941.00;;;16.91;100.00
23321;BME280;33376;51.306;4.752;2023-05-16T11:50:05;101907.38;;;17.55;100.00
23321;BME280;33376;51.306;4.752;2023-05-16T11:52:31;101792.56;;;18.22;100.00
23321;BME280;33376;51.306;4.752;2023-05-16T11:54:57;101803.00;;;18.02;100.00
23321;BME280;33376;51.306;4.752;2023-05-16T11:57:25;101759.81;;;18.30;100.00
23321;BME280;33376;51.306;4.752;2023-05-16T11:59:51;101894.97;;;16.99;100.00
23321;BME280;33376;51.306;4.752;2023-05-16T12:02:17;101970.75;;;16.29;100.00
23321;BME280;33376;51.306;4.752;2023-05-16T12:04:45;102018.00;;;16.30;100.00
23321;BME280;33376;51.306;4.752;2023-05-16T12:07:10;101982.47;;;16.42;100.00
23321;BME280;33376;51.306;4.752;2023-05-16T12:09:35;101989.50;;;16.29;100.00
23321;BME280;33376;51.306;4.752;2023-05-16T12:12:02;101926.75;;;16.49;100.00
23321;BME280;33376;51.306;4.752;2023-05-16T12:14:28;101953.56;;;16.77;100.00
23321;BME280;33376;51.306;4.752;2023-05-16T12:16:54;101903.13;;;17.24;100.00
23321;BME280;33376;51.306;4.752;2023-05-16T12:19:19;101885.25;;;17.51;100.00
23321;BME280;33376;51.306;4.752;2023-05-16T12:21:45;101924.00;;;17.19;100.00
23321;BME280;33376;51.306;4.752;2023-05-16T12:24:10;101875.09;;;16.89;100.00
23321;BME280;33376;51.306;4.752;2023-05-16T12:26:38;101934.97;;;16.46;100.00
23321;BME280;33376;51.306;4.752;2023-05-16T12:29:03;101964.06;;;16.94;100.00
23321;BME280;33376;51.306;4.752;2023-05-16T12:31:30;101932.09;;;17.72;100.00
23321;BME280;33376;51.306;4.752;2023-05-16T12:33:55;101924.31;;;17.14;100.00
23321;BME280;33376;51.306;4.752;2023-05-16T12:36:21;101924.56;;;16.83;100.00
23321;BME280;33376;51.306;4.752;2023-05-16T12:38:47;101920.16;;;16.68;100.00
23321;BME280;33376;51.306;4.752;2023-05-16T12:41:22;101886.84;;;17.80;100.00
23321;BME280;33376;51.306;4.752;2023-05-16T12:43:47;101876.59;;;18.62;100.00
23321;BME280;33376;51.306;4.752;2023-05-16T12:46:13;101791.44;;;18.01;100.00
23321;BME280;33376;51.306;4.752;2023-05-16T12:48:39;101755.31;;;18.18;100.00
23321;BME280;33376;51.306;4.752;2023-05-16T12:51:13;101733.41;;;19.07;100.00
23321;BME280;33376;51.306;4.752;2023-05-16T12:53:42;101742.88;;;19.13;100.00
23321;BME280;33376;51.306;4.752;2023-05-16T12:56:09;101700.25;;;18.12;100.00
23321;BME280;33376;51.306;4.752;2023-05-16T12:58:36;101689.34;;;19.55;100.00